createdAt,value
2018-05-10T10:55:37.086Z,100067.72
2018-05-10T10:58:03.574Z,100080.16
2018-05-10T11:02:34.879Z,100083.95
2018-05-10T11:05:03.121Z,100102.67
2018-05-10T11:07:31.457Z,100094.27
2018-05-10T11:09:59.822Z,100106.82
2018-05-10T11:12:28.155Z,100102.11
2018-05-10T11:14:56.523Z,100119.80
2018-05-10T11:17:24.866Z,100116.84
2018-05-10T11:19:53.237Z,100126.94
2018-05-10T11:22:21.574Z,100125.59
2018-05-10T11:24:49.936Z,100130.25
2018-05-10T11:27:18.320Z,100138.63
2018-05-10T11:29:46.633Z,100139.31
2018-05-10T11:32:15.006Z,100135.94
2018-05-10T11:34:43.352Z,100149.66
2018-05-10T11:37:11.708Z,100153.33
2018-05-10T11:39:40.049Z,100154.11
2018-05-10T11:42:08.426Z,100157.45
2018-05-10T11:44:36.761Z,100160.28
2018-05-10T11:47:05.124Z,100171.98
2018-05-10T11:49:33.460Z,100167.61
2018-05-10T11:52:01.825Z,100178.75
2018-05-10T11:54:30.178Z,100185.63
2018-05-10T11:56:58.542Z,100191.09
2018-05-10T11:59:26.886Z,100195.94
2018-05-10T12:01:55.251Z,100198.86
2018-05-10T12:04:23.597Z,100197.48
2018-05-10T12:06:51.953Z,100205.73
2018-05-10T12:09:20.305Z,100212.16
2018-05-10T12:11:48.670Z,100221.08
2018-05-10T12:14:17.016Z,100223.48
2018-05-10T12:16:45.381Z,100231.38
2018-05-10T12:19:14.065Z,100234.56
2018-05-10T12:21:42.393Z,100239.77
2018-05-10T12:24:10.789Z,100246.33
2018-05-10T12:26:39.162Z,100245.89
2018-05-10T12:29:07.506Z,100255.33
2018-05-10T12:31:35.864Z,100260.28
2018-05-10T12:34:04.215Z,100258.64
2018-05-10T12:36:32.681Z,100261.77
2018-05-10T12:39:01.018Z,100273.61
2018-05-10T12:41:29.430Z,100276.42
2018-05-10T12:43:57.720Z,100281.97
2018-05-10T12:46:26.140Z,100281.13
2018-05-10T12:48:54.428Z,100287.27
2018-05-10T12:51:22.799Z,100295.66
2018-05-10T12:53:51.140Z,100290.34
2018-05-10T12:56:19.848Z,100292.80
2018-05-10T12:58:48.142Z,100292.08
2018-05-10T13:01:16.499Z,100300.28
2018-05-10T13:03:44.829Z,100309.53
2018-05-10T13:06:13.190Z,100321.44
2018-05-10T13:08:41.525Z,100330.08
2018-05-10T13:11:09.889Z,100337.95
2018-05-10T13:13:38.494Z,100341.07
2018-05-10T13:16:06.864Z,100352.64
2018-05-10T13:18:35.192Z,100353.42
2018-05-10T13:21:03.549Z,100361.02
2018-05-10T13:23:31.890Z,100363.36
2018-05-10T13:26:02.900Z,100373.09
2018-05-10T13:28:31.274Z,100379.53
2018-05-10T13:30:59.661Z,100380.10
2018-05-10T13:33:28.327Z,100393.07
2018-05-10T13:35:57.213Z,100390.48
2018-05-10T13:38:25.578Z,100393.59
2018-05-10T13:40:53.906Z,100387.44
2018-05-10T13:43:22.265Z,100392.41
2018-05-10T13:45:50.596Z,100392.41
2018-05-10T13:48:18.949Z,100398.66
2018-05-10T13:50:47.291Z,100399.03
2018-05-10T13:53:15.645Z,100400.48
2018-05-10T13:55:44.022Z,100398.44
2018-05-10T13:58:12.381Z,100407.02
2018-05-10T14:00:40.710Z,100407.28
2018-05-10T14:03:09.065Z,100412.73
2018-05-10T14:05:37.397Z,100414.91
2018-05-10T14:08:05.766Z,100413.47
2018-05-10T14:10:34.092Z,100433.65
2018-05-10T14:13:02.447Z,100423.11
2018-05-10T14:15:31.550Z,100438.98
2018-05-10T14:17:59.896Z,100439.44
2018-05-10T14:20:28.229Z,100442.45
2018-05-10T14:22:56.600Z,100447.00
2018-05-10T14:25:24.954Z,100443.81
2018-05-10T14:27:53.313Z,100447.78
2018-05-10T14:30:21.706Z,100446.19
2018-05-10T14:32:50.054Z,100458.36
2018-05-10T14:35:18.564Z,100463.16
2018-05-10T14:37:46.914Z,100469.52
2018-05-10T14:40:15.261Z,100479.25
2018-05-10T14:42:43.633Z,100491.75
2018-05-10T14:45:11.965Z,100500.02
2018-05-10T14:47:40.316Z,100509.66
2018-05-10T14:50:08.662Z,100512.66
2018-05-10T14:52:37.020Z,100519.39
2018-05-10T14:55:06.210Z,100518.68
2018-05-10T14:57:34.577Z,100517.10
2018-05-10T15:00:02.918Z,100527.45
2018-05-10T15:02:31.273Z,100529.41
2018-05-10T15:04:59.605Z,100531.06
2018-05-10T15:07:27.969Z,100535.66
2018-05-10T15:09:56.320Z,100540.84
2018-05-10T15:12:24.664Z,100542.28
2018-05-10T15:14:53.736Z,100548.77
2018-05-10T15:17:22.087Z,100555.34
2018-05-10T15:19:50.438Z,100565.47
2018-05-10T15:22:18.813Z,100568.98
2018-05-10T15:24:47.207Z,100574.92
2018-05-10T15:27:15.601Z,100581.70
2018-05-10T15:29:43.953Z,100578.24
2018-05-10T15:32:12.413Z,100580.45
2018-05-10T15:34:41.550Z,100580.02
2018-05-10T15:37:11.230Z,100580.52
2018-05-10T15:39:39.661Z,100581.47
2018-05-10T15:42:07.987Z,100580.61
2018-05-10T15:44:36.362Z,100581.82
2018-05-10T15:47:04.698Z,100592.28
2018-05-10T15:49:33.071Z,100595.23
2018-05-10T15:52:01.398Z,100594.37
2018-05-10T15:54:29.752Z,100609.81
2018-05-10T15:56:58.080Z,100613.76
2018-05-10T15:59:26.541Z,100615.16
2018-05-10T16:01:54.768Z,100629.47
2018-05-10T16:04:23.126Z,100627.75
2018-05-10T16:06:51.457Z,100634.20
2018-05-10T16:09:19.818Z,100636.48
2018-05-10T16:11:48.172Z,100643.84
2018-05-10T16:14:16.796Z,100647.71
2018-05-10T16:16:45.124Z,100645.59
2018-05-10T16:19:13.475Z,100659.44
2018-05-10T16:21:41.813Z,100659.44
2018-05-10T16:24:10.176Z,100659.11
2018-05-10T16:26:38.513Z,100660.78
2018-05-10T16:29:06.869Z,100662.55
2018-05-10T16:31:35.205Z,100656.61
2018-05-10T16:34:03.717Z,100660.52
2018-05-10T16:36:32.049Z,100660.14
2018-05-10T16:39:00.423Z,100664.39
2018-05-10T16:41:28.748Z,100669.98
2018-05-10T16:43:57.100Z,100674.32
2018-05-10T16:46:25.434Z,100672.25
2018-05-10T16:48:53.789Z,100686.83
2018-05-10T16:51:22.120Z,100698.44
2018-05-10T16:53:51.146Z,100707.95
2018-05-10T16:56:19.483Z,100714.09
2018-05-10T16:58:47.868Z,100716.64
2018-05-10T17:01:16.199Z,100723.95
2018-05-10T17:03:44.550Z,100728.25
2018-05-10T17:06:12.876Z,100736.03
2018-05-10T17:08:41.241Z,100740.76
2018-05-10T17:11:09.571Z,100746.75
2018-05-10T17:13:38.773Z,100745.83
2018-05-10T17:16:07.096Z,100757.86
2018-05-10T17:18:35.548Z,100752.28
2018-05-10T17:21:03.793Z,100760.47
2018-05-10T17:23:32.153Z,100765.14
2018-05-10T17:26:00.487Z,100770.34
2018-05-10T17:28:28.837Z,100773.81
2018-05-10T17:30:57.201Z,100781.97
2018-05-10T17:33:25.526Z,100781.95
2018-05-10T17:35:53.882Z,100787.97
2018-05-10T17:38:22.203Z,100787.86
2018-05-10T17:40:50.574Z,100793.90
2018-05-10T17:43:19.417Z,100798.66
2018-05-10T17:45:47.757Z,100806.80
2018-05-10T17:48:16.134Z,100813.30
2018-05-10T17:50:44.442Z,100810.70
2018-05-10T17:53:12.768Z,100808.59
2018-05-10T17:55:41.120Z,100808.20
2018-05-10T17:58:09.461Z,100811.56
2018-05-10T18:00:37.813Z,100814.83
2018-05-10T18:03:06.147Z,100818.91
2018-05-10T18:05:34.501Z,100827.91
2018-05-10T18:08:02.830Z,100835.73
2018-05-10T18:10:31.183Z,100833.59
2018-05-10T18:12:59.521Z,100840.02
2018-05-10T18:15:27.864Z,100844.73
2018-05-10T18:17:56.211Z,100852.92
2018-05-10T18:20:24.560Z,100853.77
2018-05-10T18:22:52.882Z,100858.06
2018-05-10T18:25:21.228Z,100863.65
2018-05-10T18:27:49.565Z,100870.08
2018-05-10T18:30:17.921Z,100876.68
2018-05-10T18:32:46.262Z,100883.38
2018-05-10T18:35:14.604Z,100888.55
2018-05-10T18:37:42.934Z,100885.98
2018-05-10T18:40:11.285Z,100897.14
2018-05-10T18:42:39.613Z,100898.00
2018-05-10T18:45:07.969Z,100904.87
2018-05-10T18:47:36.309Z,100908.72
2018-05-10T18:50:04.662Z,100915.16
2018-05-10T18:52:33.001Z,100917.28
2018-05-10T18:55:01.398Z,100923.30
2018-05-10T18:57:29.681Z,100933.62
2018-05-10T18:59:58.025Z,100940.90
2018-05-10T19:02:26.357Z,100947.77
2018-05-10T19:04:54.712Z,100952.48
2018-05-10T19:07:23.103Z,100952.06
2018-05-10T19:09:52.005Z,100961.91
2018-05-10T19:12:20.372Z,100973.08
2018-05-10T19:14:48.724Z,100966.63
2018-05-10T19:17:17.052Z,100969.19
2018-05-10T19:19:45.417Z,100975.19
2018-05-10T19:22:13.752Z,100983.34
2018-05-10T19:24:42.097Z,100983.72
2018-05-10T19:27:10.430Z,100988.02
2018-05-10T19:29:38.824Z,100993.16
2018-05-10T19:32:07.153Z,100993.59
2018-05-10T19:34:35.479Z,100994.85
2018-05-10T19:37:03.820Z,100997.00
2018-05-10T19:39:32.242Z,101004.77
2018-05-10T19:42:00.589Z,101005.18
2018-05-10T19:44:28.952Z,101013.31
2018-05-10T19:46:57.265Z,101016.78
2018-05-10T19:49:25.591Z,101012.91
2018-05-10T19:51:53.933Z,101016.36
2018-05-10T19:54:22.269Z,101029.22
2018-05-10T19:56:50.615Z,101024.13
2018-05-10T19:59:18.941Z,101024.55
2018-05-10T20:01:47.280Z,101028.83
2018-05-10T20:04:15.610Z,101028.39
2018-05-10T20:06:43.957Z,101030.95
2018-05-10T20:09:12.289Z,101025.36
2018-05-10T20:11:40.637Z,101038.66
2018-05-10T20:14:08.964Z,101030.52
2018-05-10T20:16:37.306Z,101039.50
2018-05-10T20:19:05.640Z,101044.67
2018-05-10T20:21:33.988Z,101042.08
2018-05-10T20:24:02.363Z,101049.78
2018-05-10T20:26:30.660Z,101052.36
2018-05-10T20:28:58.984Z,101054.05
2018-05-10T20:31:27.337Z,101054.48
2018-05-10T20:33:55.669Z,101062.17
2018-05-10T20:36:24.016Z,101055.78
2018-05-10T20:38:52.342Z,101062.62
2018-05-10T20:41:20.685Z,101066.47
2018-05-10T20:43:49.038Z,101068.17
2018-05-10T20:46:17.381Z,101074.63
2018-05-10T20:48:45.712Z,101078.89
2018-05-10T20:51:14.057Z,101083.14
2018-05-10T20:53:42.392Z,101089.20
2018-05-10T20:56:10.737Z,101086.54
2018-05-10T20:58:39.078Z,101083.98
2018-05-10T21:01:07.424Z,101093.77
2018-05-10T21:03:35.854Z,101098.03
2018-05-10T21:06:04.202Z,101100.80
2018-05-10T21:08:32.525Z,101106.40
2018-05-10T21:11:00.865Z,101108.08
2018-05-10T21:13:29.199Z,101109.27
2018-05-10T21:15:57.541Z,101112.24
2018-05-10T21:18:25.871Z,101107.08
2018-05-10T21:20:54.216Z,101109.61
2018-05-10T21:23:22.549Z,101115.19
2018-05-10T21:25:50.889Z,101102.73
2018-05-10T21:28:19.213Z,101113.45
2018-05-10T21:30:47.557Z,101119.45
2018-05-10T21:33:15.876Z,101122.88
2018-05-10T21:35:44.234Z,101120.69
2018-05-10T21:38:12.563Z,101129.73
2018-05-10T21:40:40.889Z,101124.95
2018-05-10T21:43:09.241Z,101128.41
2018-05-10T21:45:37.560Z,101135.69
2018-05-10T21:48:05.905Z,101136.90
2018-05-10T21:50:34.220Z,101136.88
2018-05-10T21:53:02.568Z,101134.75
2018-05-10T21:55:30.888Z,101132.63
2018-05-10T21:57:59.232Z,101134.73
2018-05-10T22:00:27.565Z,101139.02
2018-05-10T22:02:55.901Z,101145.87
2018-05-10T22:05:24.225Z,101150.17
2018-05-10T22:07:52.588Z,101151.46
2018-05-10T22:10:20.908Z,101158.39
2018-05-10T22:12:49.258Z,101166.98
2018-05-10T22:15:17.585Z,101169.16
2018-05-10T22:17:45.933Z,101172.59
2018-05-10T22:20:14.256Z,101172.56
2018-05-10T22:22:42.636Z,101185.38
2018-05-10T22:25:10.931Z,101180.67
2018-05-10T22:27:39.281Z,101184.11
2018-05-10T22:30:07.631Z,101180.72
2018-05-10T22:32:35.952Z,101184.11
2018-05-10T22:35:04.366Z,101192.22
2018-05-10T22:37:32.629Z,101186.63
2018-05-10T22:40:00.956Z,101189.08
2018-05-10T22:42:29.292Z,101188.63
2018-05-10T22:44:57.616Z,101196.75
2018-05-10T22:47:25.968Z,101195.39
2018-05-10T22:49:54.297Z,101193.70
2018-05-10T22:52:22.640Z,101201.00
2018-05-10T22:54:50.968Z,101204.45
2018-05-10T22:57:19.317Z,101202.27
2018-05-10T22:59:47.743Z,101207.34
2018-05-10T23:02:15.993Z,101206.51
2018-05-10T23:04:44.324Z,101207.78
2018-05-10T23:07:12.676Z,101209.05
2018-05-10T23:09:41.023Z,101209.45
2018-05-10T23:12:09.456Z,101209.44
2018-05-10T23:14:37.709Z,101211.55
2018-05-10T23:17:06.057Z,101212.39
2018-05-10T23:19:34.388Z,101213.70
2018-05-10T23:22:02.729Z,101206.00
2018-05-10T23:24:31.058Z,101206.83
2018-05-10T23:26:59.400Z,101204.14
2018-05-10T23:29:27.733Z,101207.25
2018-05-10T23:31:56.083Z,101208.05
2018-05-10T23:34:24.405Z,101213.62
2018-05-10T23:36:52.728Z,101212.80
2018-05-10T23:39:21.072Z,101210.63
2018-05-10T23:41:49.407Z,101214.48
2018-05-10T23:44:17.748Z,101217.08
2018-05-10T23:46:46.072Z,101216.72
2018-05-10T23:49:14.468Z,101221.83
2018-05-10T23:51:42.793Z,101215.38
2018-05-10T23:54:11.137Z,101222.61
2018-05-10T23:56:39.472Z,101225.62
2018-05-10T23:59:07.852Z,101228.57
